createdAt,value
2023-01-01T00:01:22.532Z,98485.58
2023-01-01T00:03:55.768Z,98490.66
2023-01-01T00:06:28.752Z,98492.00
2023-01-01T00:09:18.625Z,98484.60
2023-01-01T00:11:51.107Z,98477.05
2023-01-01T00:14:23.779Z,98470.52
2023-01-01T00:16:57.412Z,98468.15
2023-01-01T00:19:29.914Z,98469.72
2023-01-01T00:22:20.730Z,98473.65
2023-01-01T00:24:54.905Z,98481.00
2023-01-01T00:27:27.361Z,98476.19
2023-01-01T00:29:59.918Z,98480.05
2023-01-01T00:32:32.766Z,98480.45
2023-01-01T00:35:05.925Z,98474.23
2023-01-01T00:37:44.902Z,98477.23
2023-01-01T00:40:20.038Z,98480.77
2023-01-01T00:42:52.451Z,98480.34
2023-01-01T00:45:24.914Z,98483.91
2023-01-01T00:47:57.671Z,98485.92
2023-01-01T00:50:30.282Z,98484.52
2023-01-01T00:53:02.731Z,98479.32
2023-01-01T00:55:35.152Z,98478.79
2023-01-01T00:58:07.623Z,98484.95
2023-01-01T01:00:40.500Z,98492.34
2023-01-01T01:03:28.379Z,98496.52
2023-01-01T01:06:10.404Z,98505.96
2023-01-01T01:08:45.877Z,98501.80
2023-01-01T01:11:20.194Z,98506.98
2023-01-01T01:13:55.151Z,98510.70
2023-01-01T01:16:30.201Z,98499.31
2023-01-01T01:19:05.462Z,98490.65
2023-01-01T01:21:38.958Z,98493.64
2023-01-01T01:24:14.699Z,98486.54
2023-01-01T01:26:47.157Z,98497.52
2023-01-01T01:29:19.593Z,98491.27
2023-01-01T01:31:52.138Z,98483.45
2023-01-01T01:34:28.094Z,98489.06
2023-01-01T01:37:01.019Z,98491.92
2023-01-01T01:39:33.685Z,98495.70
2023-01-01T01:42:06.179Z,98496.30
2023-01-01T01:44:59.810Z,98499.77
2023-01-01T01:47:41.096Z,98493.77
2023-01-01T01:50:18.306Z,98498.27
2023-01-01T01:53:00.048Z,98497.16
2023-01-01T01:55:35.449Z,98490.13
2023-01-01T01:58:11.296Z,98493.48
2023-01-01T02:00:44.363Z,98488.23
2023-01-01T02:03:22.239Z,98485.56
2023-01-01T02:05:55.305Z,98485.03
2023-01-01T02:08:29.298Z,98481.20
2023-01-01T02:11:01.981Z,98479.19
2023-01-01T02:13:34.768Z,98478.29
2023-01-01T02:16:14.760Z,98474.73
2023-01-01T02:18:52.405Z,98476.48
2023-01-01T02:21:31.941Z,98478.42
2023-01-01T02:24:38.144Z,98477.64
2023-01-01T02:27:17.076Z,98476.27
2023-01-01T02:29:54.205Z,98473.19
2023-01-01T02:32:32.716Z,98472.46
2023-01-01T02:35:25.442Z,98472.94
2023-01-01T02:41:13.487Z,98461.35
2023-01-01T02:43:46.773Z,98455.77
2023-01-01T02:48:54.739Z,98464.11
2023-01-01T02:51:37.161Z,98468.19
2023-01-01T02:54:17.346Z,98472.42
2023-01-01T02:56:53.853Z,98466.19
2023-01-01T02:59:53.338Z,98460.59
2023-01-01T03:02:34.799Z,98460.32
2023-01-01T03:05:14.927Z,98469.63
2023-01-01T03:08:01.895Z,98465.34
2023-01-01T03:10:42.643Z,98473.42
2023-01-01T03:13:21.136Z,98476.72
2023-01-01T03:16:01.164Z,98475.30
2023-01-01T03:18:40.470Z,98478.48
2023-01-01T03:23:54.828Z,98479.52
2023-01-01T03:26:31.533Z,98485.03
2023-01-01T03:29:06.706Z,98491.18
2023-01-01T03:31:46.905Z,98495.77
2023-01-01T03:34:24.921Z,98494.84
2023-01-01T03:37:01.875Z,98495.90
2023-01-01T03:39:39.786Z,98494.67
2023-01-01T03:42:23.024Z,98500.60
2023-01-01T03:45:01.919Z,98500.59
2023-01-01T03:47:35.313Z,98501.23
2023-01-01T03:50:09.919Z,98495.79
2023-01-01T03:52:52.842Z,98496.94
2023-01-01T03:55:34.420Z,98499.95
2023-01-01T03:58:15.198Z,98498.50
2023-01-01T04:00:52.273Z,98501.97
2023-01-01T04:03:27.636Z,98504.37
2023-01-01T04:06:00.159Z,98504.91
2023-01-01T04:08:35.379Z,98502.10
2023-01-01T04:11:28.676Z,98500.73
2023-01-01T04:14:01.731Z,98500.08
2023-01-01T04:16:34.399Z,98498.52
2023-01-01T04:19:07.885Z,98494.42
2023-01-01T04:21:40.639Z,98492.65
2023-01-01T04:24:14.966Z,98498.88
2023-01-01T04:26:48.039Z,98504.84
2023-01-01T04:29:20.955Z,98504.46
2023-01-01T04:31:53.379Z,98504.80
2023-01-01T04:34:26.168Z,98508.13
2023-01-01T04:36:59.014Z,98509.30
2023-01-01T04:39:31.405Z,98512.09
2023-01-01T04:42:03.855Z,98517.89
2023-01-01T04:44:36.457Z,98519.20
2023-01-01T04:47:09.393Z,98521.77
2023-01-01T04:49:43.689Z,98521.38
2023-01-01T04:52:16.477Z,98517.15
2023-01-01T04:54:48.929Z,98516.54
2023-01-01T04:57:22.055Z,98519.83
2023-01-01T04:59:54.334Z,98521.61
2023-01-01T05:02:27.096Z,98527.70
2023-01-01T05:05:00.500Z,98537.42
2023-01-01T05:07:36.006Z,98538.48
2023-01-01T05:10:10.049Z,98543.04
2023-01-01T05:12:42.640Z,98552.27
2023-01-01T05:15:15.350Z,98553.49
2023-01-01T05:17:48.317Z,98563.16
2023-01-01T05:20:20.704Z,98563.61
2023-01-01T05:22:53.425Z,98568.61
2023-01-01T05:25:25.798Z,98577.66
2023-01-01T05:27:58.335Z,98579.80
2023-01-01T05:30:31.140Z,98580.81
2023-01-01T05:33:03.524Z,98578.08
2023-01-01T05:35:36.434Z,98573.73
2023-01-01T05:38:09.024Z,98568.17
2023-01-01T05:40:42.764Z,98569.73
2023-01-01T05:43:18.608Z,98559.64
2023-01-01T05:45:51.281Z,98562.12
2023-01-01T05:48:24.057Z,98560.23
2023-01-01T05:51:03.023Z,98564.41
2023-01-01T05:53:36.470Z,98569.72
2023-01-01T05:56:12.129Z,98577.54
2023-01-01T05:58:48.005Z,98580.25
2023-01-01T06:01:23.218Z,98582.75
2023-01-01T06:03:57.125Z,98583.69
2023-01-01T06:06:31.329Z,98591.27
2023-01-01T06:09:06.409Z,98596.26
2023-01-01T06:11:38.875Z,98594.91
2023-01-01T06:14:11.313Z,98593.59
2023-01-01T06:16:43.917Z,98593.37
2023-01-01T06:19:16.515Z,98592.00
2023-01-01T06:21:49.425Z,98587.96
2023-01-01T06:24:22.120Z,98593.34
2023-01-01T06:26:54.609Z,98595.77
2023-01-01T06:29:27.205Z,98598.48
2023-01-01T06:31:59.809Z,98611.36
2023-01-01T06:34:33.575Z,98607.80
2023-01-01T06:37:07.193Z,98610.36
2023-01-01T06:39:43.118Z,98608.65
2023-01-01T06:42:18.670Z,98612.58
2023-01-01T06:44:51.084Z,98612.90
2023-01-01T06:47:23.878Z,98616.29
2023-01-01T06:49:56.551Z,98619.29
2023-01-01T06:52:29.098Z,98622.68
2023-01-01T06:55:01.581Z,98625.50
2023-01-01T06:57:35.276Z,98630.73
2023-01-01T07:00:09.607Z,98637.09
2023-01-01T07:02:45.070Z,98638.48
2023-01-01T07:05:17.753Z,98645.01
2023-01-01T07:07:50.203Z,98650.83
2023-01-01T07:10:22.631Z,98661.87
2023-01-01T07:12:55.190Z,98665.39
2023-01-01T07:15:30.115Z,98670.25
2023-01-01T07:18:05.248Z,98681.42
2023-01-01T07:20:37.693Z,98685.79
2023-01-01T07:23:12.890Z,98688.27
2023-01-01T07:25:45.532Z,98687.84
2023-01-01T07:28:18.228Z,98691.06
2023-01-01T07:30:54.583Z,98695.04
2023-01-01T07:33:29.458Z,98694.21
2023-01-01T07:36:01.957Z,98695.45
2023-01-01T07:38:34.423Z,98698.81
2023-01-01T07:41:09.899Z,98699.64
2023-01-01T07:43:42.534Z,98705.51
2023-01-01T07:46:16.393Z,98714.06
2023-01-01T07:48:49.459Z,98715.45
2023-01-01T07:51:22.254Z,98715.55
2023-01-01T07:54:03.909Z,98722.09
2023-01-01T07:56:42.403Z,98726.73
2023-01-01T07:59:20.347Z,98728.59
2023-01-01T08:01:53.773Z,98725.30
2023-01-01T08:04:27.029Z,98730.33
2023-01-01T08:07:02.657Z,98730.61
2023-01-01T08:09:36.283Z,98730.34
2023-01-01T08:12:09.234Z,98735.01
2023-01-01T08:14:41.490Z,98728.89
2023-01-01T08:17:13.973Z,98722.77
2023-01-01T08:19:47.221Z,98725.20
2023-01-01T08:22:20.052Z,98729.17
2023-01-01T08:24:52.534Z,98733.52
2023-01-01T08:27:25.080Z,98731.61
2023-01-01T08:29:57.625Z,98726.56
2023-01-01T08:32:33.142Z,98731.75
2023-01-01T08:35:06.008Z,98735.38
2023-01-01T08:37:38.995Z,98736.78
2023-01-01T08:40:14.485Z,98735.92
2023-01-01T08:42:47.232Z,98732.81
2023-01-01T08:45:19.868Z,98732.64
2023-01-01T08:47:52.386Z,98729.40
2023-01-01T08:50:24.754Z,98731.45
2023-01-01T08:52:59.100Z,98735.14
2023-01-01T08:55:32.584Z,98701.30
2023-01-01T08:58:08.864Z,98689.86
2023-01-01T09:00:41.385Z,98665.48
2023-01-01T09:03:15.818Z,98673.46
2023-01-01T09:05:48.953Z,98665.08
2023-01-01T09:08:24.164Z,98626.34
2023-01-01T09:11:01.384Z,98613.38
2023-01-01T09:13:35.353Z,98596.02
2023-01-01T09:16:10.574Z,98590.61
2023-01-01T09:18:43.148Z,98539.12
2023-01-01T09:21:15.952Z,98525.03
2023-01-01T09:23:48.485Z,98511.64
2023-01-01T09:26:20.929Z,98528.16
2023-01-01T09:28:53.469Z,98510.06
2023-01-01T09:31:25.990Z,98513.69
2023-01-01T09:34:00.574Z,98497.52
2023-01-01T09:36:34.663Z,98471.77
2023-01-01T09:39:07.681Z,98448.38
2023-01-01T09:41:53.724Z,98437.84
2023-01-01T09:44:46.815Z,98441.31
2023-01-01T09:47:28.025Z,98458.02
2023-01-01T09:50:06.722Z,98448.83
2023-01-01T09:52:47.149Z,98457.84
2023-01-01T09:55:27.568Z,98443.89
2023-01-01T09:57:58.870Z,98448.75
2023-01-01T10:00:35.294Z,98430.28
2023-01-01T10:03:20.729Z,98426.80
2023-01-01T10:06:03.450Z,98416.67
2023-01-01T10:08:45.091Z,98398.17
2023-01-01T10:11:27.710Z,98369.52
2023-01-01T10:14:05.305Z,98366.56
2023-01-01T10:16:43.047Z,98360.90
2023-01-01T10:19:32.927Z,98363.53
2023-01-01T10:22:08.756Z,98364.68
2023-01-01T10:24:49.819Z,98377.56
2023-01-01T10:27:32.324Z,98390.73
2023-01-01T10:30:14.300Z,98387.66
2023-01-01T10:32:50.915Z,98379.90
2023-01-01T10:35:35.206Z,98383.89
2023-01-01T10:38:08.482Z,98388.00
2023-01-01T10:40:42.642Z,98394.17
2023-01-01T10:43:15.135Z,98396.27
2023-01-01T10:45:52.316Z,98398.42
2023-01-01T10:48:26.793Z,98386.26
2023-01-01T10:51:02.215Z,98385.13
2023-01-01T10:53:37.940Z,98391.23
2023-01-01T10:56:14.095Z,98389.90
2023-01-01T10:58:49.504Z,98392.14
2023-01-01T11:01:28.598Z,98386.23
2023-01-01T11:04:22.516Z,98376.93
2023-01-01T11:06:55.214Z,98381.55
2023-01-01T11:09:32.242Z,98377.60
2023-01-01T11:12:09.713Z,98377.45
2023-01-01T11:14:55.449Z,98386.02
2023-01-01T11:17:30.394Z,98395.80
2023-01-01T11:20:06.533Z,98394.83
2023-01-01T11:22:42.740Z,98387.81
2023-01-01T11:25:25.306Z,98384.86
2023-01-01T11:28:22.066Z,98393.30
2023-01-01T11:31:13.939Z,98404.98
2023-01-01T11:33:54.228Z,98419.02
2023-01-01T11:36:30.938Z,98425.02
2023-01-01T11:39:28.223Z,98423.05
2023-01-01T11:42:01.144Z,98403.06
2023-01-01T11:44:44.864Z,98396.63
2023-01-01T11:47:27.837Z,98400.91
2023-01-01T11:50:06.979Z,98415.64
2023-01-01T11:52:44.648Z,98430.85
2023-01-01T11:55:29.026Z,98436.27
2023-01-01T11:58:06.824Z,98436.70
2023-01-01T12:00:39.828Z,98446.41
2023-01-01T12:03:32.880Z,98460.55
2023-01-01T12:06:12.472Z,98469.38
2023-01-01T12:08:50.144Z,98488.89
2023-01-01T12:11:30.776Z,98497.70
2023-01-01T12:14:15.295Z,98498.44
2023-01-01T12:16:56.596Z,98503.83
2023-01-01T12:19:37.052Z,98507.44
2023-01-01T12:22:17.357Z,98510.11
2023-01-01T12:24:51.285Z,98514.52
2023-01-01T12:27:37.418Z,98511.66
2023-01-01T12:30:25.384Z,98513.48
2023-01-01T12:33:19.244Z,98502.15
2023-01-01T12:36:03.077Z,98491.89
2023-01-01T12:39:04.513Z,98481.34
2023-01-01T12:41:48.587Z,98470.79
2023-01-01T12:44:33.572Z,98470.37
2023-01-01T12:47:17.500Z,98475.95
2023-01-01T12:50:10.721Z,98477.15
2023-01-01T12:52:51.819Z,98471.20
2023-01-01T12:55:54.730Z,98469.61
2023-01-01T12:58:32.942Z,98472.27
2023-01-01T13:01:11.384Z,98474.27
2023-01-01T13:03:51.830Z,98469.56
2023-01-01T13:06:40.203Z,98465.27
2023-01-01T13:09:19.385Z,98472.65
2023-01-01T13:11:56.532Z,98488.05
2023-01-01T13:14:29.300Z,98497.36
2023-01-01T13:17:03.380Z,98494.59
2023-01-01T13:19:38.597Z,98495.84
2023-01-01T13:22:42.240Z,98505.04
2023-01-01T13:25:27.810Z,98522.82
2023-01-01T13:28:17.806Z,98527.57
2023-01-01T13:30:54.947Z,98542.27
2023-01-01T13:33:31.339Z,98552.33
2023-01-01T13:36:34.070Z,98561.81
2023-01-01T13:39:08.887Z,98575.09
2023-01-01T13:41:47.108Z,98590.81
2023-01-01T13:44:25.222Z,98608.35
2023-01-01T13:47:30.951Z,98625.62
2023-01-01T13:50:14.964Z,98629.52
2023-01-01T13:53:15.700Z,98640.73
2023-01-01T13:56:10.946Z,98645.64
2023-01-01T13:59:21.778Z,98654.90
2023-01-01T14:02:19.936Z,98669.71
2023-01-01T14:05:02.813Z,98673.10
2023-01-01T14:07:51.650Z,98681.45
2023-01-01T14:10:31.821Z,98690.98
2023-01-01T14:13:18.393Z,98693.79
2023-01-01T14:15:58.908Z,98703.28
2023-01-01T14:18:36.237Z,98712.55
2023-01-01T14:21:13.910Z,98724.27
2023-01-01T14:23:51.554Z,98731.05
2023-01-01T14:26:29.397Z,98737.80
2023-01-01T14:29:07.676Z,98739.80
2023-01-01T14:31:45.054Z,98753.92
2023-01-01T14:34:25.203Z,98757.48
2023-01-01T14:36:59.854Z,98767.86
2023-01-01T14:39:37.635Z,98762.71
2023-01-01T14:42:18.155Z,98767.09
2023-01-01T14:44:55.050Z,98775.13
2023-01-01T14:47:34.477Z,98775.38
2023-01-01T14:50:17.814Z,98777.86
2023-01-01T14:56:00.444Z,98784.11
2023-01-01T14:58:34.437Z,98791.32
2023-01-01T15:01:23.392Z,98797.54
2023-01-01T15:04:02.542Z,98799.23
2023-01-01T15:06:41.605Z,98803.84
2023-01-01T15:09:21.355Z,98802.55
2023-01-01T15:12:01.155Z,98804.99
2023-01-01T15:14:41.101Z,98804.69
2023-01-01T15:17:16.660Z,98809.61
2023-01-01T15:20:02.674Z,98806.66
2023-01-01T15:22:40.137Z,98807.77
2023-01-01T15:25:17.928Z,98812.63
2023-01-01T15:27:54.233Z,98812.83
2023-01-01T15:30:35.391Z,98814.72
2023-01-01T15:33:18.289Z,98814.97
2023-01-01T15:35:52.516Z,98803.20
2023-01-01T15:38:31.216Z,98808.01
2023-01-01T15:41:23.762Z,98820.61
2023-01-01T15:44:10.288Z,98827.65
2023-01-01T15:46:48.732Z,98839.57
2023-01-01T15:49:29.453Z,98847.89
2023-01-01T15:52:08.507Z,98844.52
2023-01-01T15:54:46.597Z,98849.17
2023-01-01T15:57:22.649Z,98836.63
2023-01-01T15:59:59.182Z,98831.19
2023-01-01T16:02:36.645Z,98829.50
2023-01-01T16:05:17.851Z,98837.02
2023-01-01T16:07:58.105Z,98827.14
2023-01-01T16:10:31.980Z,98819.19
2023-01-01T16:13:04.547Z,98828.23
2023-01-01T16:15:41.606Z,98821.91
2023-01-01T16:18:21.576Z,98814.57
2023-01-01T16:20:56.746Z,98815.96
2023-01-01T16:23:29.426Z,98817.73
2023-01-01T16:26:06.405Z,98820.02
2023-01-01T16:28:46.849Z,98824.33
2023-01-01T16:31:22.158Z,98824.82
2023-01-01T16:33:57.753Z,98847.05
2023-01-01T16:36:35.579Z,98852.14
2023-01-01T16:39:11.306Z,98851.49
2023-01-01T16:41:45.476Z,98859.78
2023-01-01T16:44:25.400Z,98862.82
2023-01-01T16:46:57.871Z,98867.07
2023-01-01T16:49:35.347Z,98864.20
2023-01-01T16:52:19.439Z,98864.58
2023-01-01T16:54:55.463Z,98866.01
2023-01-01T16:57:28.003Z,98881.03
2023-01-01T17:00:00.776Z,98881.19
2023-01-01T17:02:33.395Z,98890.35
2023-01-01T17:05:10.467Z,98887.27
2023-01-01T17:07:45.842Z,98886.50
2023-01-01T17:10:18.356Z,98889.06
2023-01-01T17:12:52.136Z,98897.04
2023-01-01T17:15:24.753Z,98903.71
2023-01-01T17:18:00.569Z,98915.61
2023-01-01T17:20:35.581Z,98905.98
2023-01-01T17:23:09.583Z,98907.66
2023-01-01T17:25:45.003Z,98905.05
2023-01-01T17:28:19.665Z,98906.20
2023-01-01T17:30:52.368Z,98907.05
2023-01-01T17:33:25.024Z,98900.85
2023-01-01T17:35:58.305Z,98902.13
2023-01-01T17:38:32.838Z,98908.07
2023-01-01T17:41:09.495Z,98905.08
2023-01-01T17:43:46.976Z,98908.44
2023-01-01T17:46:26.808Z,98910.66
2023-01-01T17:49:03.060Z,98912.89
2023-01-01T17:51:39.542Z,98910.94
2023-01-01T17:54:13.919Z,98907.79
2023-01-01T17:56:48.220Z,98915.41
2023-01-01T17:59:21.087Z,98915.91
2023-01-01T18:01:53.682Z,98918.41
2023-01-01T18:04:27.418Z,98910.77
2023-01-01T18:07:05.984Z,98912.27
2023-01-01T18:09:38.698Z,98908.77
2023-01-01T18:12:13.500Z,98921.23
2023-01-01T18:14:48.483Z,98917.39
2023-01-01T18:17:23.375Z,98928.80
2023-01-01T18:19:58.708Z,98932.23
2023-01-01T18:22:31.251Z,98931.34
2023-01-01T18:25:04.312Z,98928.54
2023-01-01T18:27:36.784Z,98933.65
2023-01-01T18:30:11.383Z,98932.59
2023-01-01T18:32:45.670Z,98937.14
2023-01-01T18:35:18.925Z,98933.83
2023-01-01T18:37:51.691Z,98933.63
2023-01-01T18:40:32.862Z,98937.66
2023-01-01T18:43:11.020Z,98935.88
2023-01-01T18:45:44.264Z,98935.95
2023-01-01T18:48:22.833Z,98945.19
2023-01-01T18:50:55.423Z,98946.51
2023-01-01T18:53:31.197Z,98942.77
2023-01-01T18:56:10.931Z,98941.20
2023-01-01T18:58:45.426Z,98939.88
2023-01-01T19:01:20.640Z,98950.32
2023-01-01T19:03:55.654Z,98955.27
2023-01-01T19:06:31.333Z,98950.84
2023-01-01T19:09:16.172Z,98950.08
2023-01-01T19:11:50.411Z,98948.08
2023-01-01T19:14:25.352Z,98953.71
2023-01-01T19:17:03.145Z,98953.31
2023-01-01T19:19:47.650Z,98946.97
2023-01-01T19:22:29.874Z,98952.46
2023-01-01T19:25:25.124Z,98953.86
2023-01-01T19:27:58.224Z,98952.77
2023-01-01T19:30:30.974Z,98961.69
2023-01-01T19:33:08.502Z,98957.89
2023-01-01T19:35:41.630Z,98954.23
2023-01-01T19:38:15.364Z,98961.94
2023-01-01T19:40:53.413Z,98961.99
2023-01-01T19:43:25.999Z,98959.73
2023-01-01T19:46:01.423Z,98955.99
2023-01-01T19:48:35.086Z,98961.55
2023-01-01T19:51:08.150Z,98954.06
2023-01-01T19:53:40.618Z,98948.89
2023-01-01T19:56:14.342Z,98948.81
2023-01-01T19:58:52.143Z,98958.03
2023-01-01T20:01:24.929Z,98965.20
2023-01-01T20:03:58.947Z,98966.23
2023-01-01T20:06:34.029Z,98968.27
2023-01-01T20:09:07.156Z,98970.89
2023-01-01T20:11:39.686Z,98970.08
2023-01-01T20:14:12.147Z,98966.44
2023-01-01T20:16:45.364Z,98965.99
2023-01-01T20:19:18.422Z,98959.95
2023-01-01T20:22:09.252Z,98961.02
2023-01-01T20:24:42.746Z,98965.21
2023-01-01T20:27:17.818Z,98969.69
2023-01-01T20:29:53.853Z,98970.45
2023-01-01T20:32:26.638Z,98969.59
2023-01-01T20:34:59.341Z,98972.73
2023-01-01T20:37:43.141Z,98973.14
2023-01-01T20:40:16.029Z,98976.72
2023-01-01T20:42:52.296Z,98971.20
2023-01-01T20:45:29.426Z,98971.35
2023-01-01T20:48:02.309Z,98970.62
2023-01-01T20:50:37.389Z,98976.68
2023-01-01T20:53:10.195Z,98978.63
2023-01-01T20:55:43.481Z,98983.23
2023-01-01T20:58:18.664Z,98975.28
2023-01-01T21:00:51.247Z,98984.26
2023-01-01T21:03:23.899Z,98982.94
2023-01-01T21:05:56.682Z,98989.95
2023-01-01T21:08:29.170Z,98992.88
2023-01-01T21:11:03.690Z,98995.14
2023-01-01T21:13:36.105Z,98988.08
2023-01-01T21:16:19.169Z,98991.84
2023-01-01T21:18:54.725Z,98991.52
2023-01-01T21:21:30.536Z,98984.69
2023-01-01T21:24:10.562Z,98984.77
2023-01-01T21:26:43.029Z,98985.34
2023-01-01T21:29:18.551Z,98991.02
2023-01-01T21:31:54.228Z,98991.77
2023-01-01T21:34:38.490Z,98999.95
2023-01-01T21:37:37.494Z,98991.11
2023-01-01T21:40:34.797Z,98996.86
2023-01-01T21:43:33.810Z,99001.10
2023-01-01T21:46:33.192Z,98992.63
2023-01-01T21:49:17.952Z,98989.28
2023-01-01T21:51:55.302Z,98990.63
2023-01-01T21:54:33.293Z,98993.58
2023-01-01T21:57:16.092Z,99000.95
2023-01-01T21:59:49.257Z,99001.70
2023-01-01T22:02:40.488Z,99001.59
2023-01-01T22:05:30.500Z,99010.27
2023-01-01T22:08:25.860Z,99004.84
2023-01-01T22:10:59.191Z,99003.73
2023-01-01T22:13:32.467Z,98997.84
2023-01-01T22:16:05.075Z,98999.31
2023-01-01T22:18:41.627Z,98996.65
2023-01-01T22:21:20.086Z,98991.39
2023-01-01T22:23:56.457Z,98983.84
2023-01-01T22:26:31.338Z,98976.35
2023-01-01T22:29:09.391Z,98974.54
2023-01-01T22:31:48.739Z,98981.33
2023-01-01T22:34:25.267Z,98981.60
2023-01-01T22:36:58.551Z,98981.80
2023-01-01T22:39:36.293Z,98976.69
2023-01-01T22:42:14.397Z,98973.60
2023-01-01T22:44:55.483Z,98967.81
2023-01-01T22:47:35.612Z,98967.81
2023-01-01T22:50:09.996Z,98966.66
2023-01-01T22:52:42.610Z,98965.90
2023-01-01T22:55:15.239Z,98978.79
2023-01-01T22:57:47.883Z,98972.71
2023-01-01T23:00:21.530Z,98971.80
2023-01-01T23:02:54.338Z,98975.77
2023-01-01T23:05:27.476Z,98981.93
2023-01-01T23:08:00.270Z,98980.73
2023-01-01T23:10:33.759Z,98975.98
2023-01-01T23:13:20.770Z,98971.95
2023-01-01T23:16:02.675Z,98968.60
2023-01-01T23:18:37.755Z,98976.29
2023-01-01T23:21:20.074Z,98976.36
2023-01-01T23:24:02.003Z,98975.31
2023-01-01T23:26:35.122Z,98977.68
2023-01-01T23:29:09.221Z,98962.15
2023-01-01T23:31:44.000Z,98959.80
2023-01-01T23:34:17.022Z,98955.63
2023-01-01T23:36:54.544Z,98958.64
2023-01-01T23:39:28.883Z,98958.73
2023-01-01T23:42:01.559Z,98958.95
2023-01-01T23:44:34.069Z,98960.98
2023-01-01T23:47:09.907Z,98955.55
2023-01-01T23:49:43.752Z,98954.34
2023-01-01T23:52:16.316Z,98953.46
2023-01-01T23:54:48.732Z,98955.13
2023-01-01T23:57:21.170Z,98957.63
2023-01-01T23:59:54.375Z,98954.98
